sensor_id;sensor_type;location;lat;lon;timestamp;P1;durP1;ratioP1;P2;durP2;ratioP2
9306;SDS011;4691;47.612;7.610;2022-08-19T00:00:33;16.40;;;12.90;;
9306;SDS011;4691;47.612;7.610;2022-08-19T00:02:59;19.55;;;11.93;;
9306;SDS011;4691;47.612;7.610;2022-08-19T00:05:25;15.85;;;12.15;;
9306;SDS011;4691;47.612;7.610;2022-08-19T00:07:50;15.25;;;11.77;;
9306;SDS011;4691;47.612;7.610;2022-08-19T00:10:16;14.30;;;11.55;;
9306;SDS011;4691;47.612;7.610;2022-08-19T00:12:43;15.15;;;11.52;;
9306;SDS011;4691;47.612;7.610;2022-08-19T00:15:10;15.32;;;11.18;;
9306;SDS011;4691;47.612;7.610;2022-08-19T00:17:41;14.38;;;11.18;;
9306;SDS011;4691;47.612;7.610;2022-08-19T00:20:09;14.50;;;11.20;;
9306;SDS011;4691;47.612;7.610;2022-08-19T00:22:36;15.27;;;12.77;;
9306;SDS011;4691;47.612;7.610;2022-08-19T00:25:02;14.73;;;11.52;;
9306;SDS011;4691;47.612;7.610;2022-08-19T00:27:29;16.92;;;12.70;;
9306;SDS011;4691;47.612;7.610;2022-08-19T00:29:54;15.32;;;13.45;;
9306;SDS011;4691;47.612;7.610;2022-08-19T00:32:19;15.63;;;13.05;;
9306;SDS011;4691;47.612;7.610;2022-08-19T00:34:45;18.50;;;12.85;;
9306;SDS011;4691;47.612;7.610;2022-08-19T00:37:11;13.57;;;12.23;;
9306;SDS011;4691;47.612;7.610;2022-08-19T00:39:36;17.38;;;13.68;;
9306;SDS011;4691;47.612;7.610;2022-08-19T00:42:02;15.70;;;14.00;;
9306;SDS011;4691;47.612;7.610;2022-08-19T00:44:28;15.20;;;13.10;;
9306;SDS011;4691;47.612;7.610;2022-08-19T00:46:55;18.95;;;14.90;;
9306;SDS011;4691;47.612;7.610;2022-08-19T00:52:23;17.02;;;15.27;;
9306;SDS011;4691;47.612;7.610;2022-08-19T00:54:54;16.85;;;15.05;;
9306;SDS011;4691;47.612;7.610;2022-08-19T00:57:22;16.95;;;15.23;;
9306;SDS011;4691;47.612;7.610;2022-08-19T00:59:55;17.40;;;14.52;;
9306;SDS011;4691;47.612;7.610;2022-08-19T01:02:23;18.33;;;14.80;;
9306;SDS011;4691;47.612;7.610;2022-08-19T01:04:49;17.38;;;15.18;;
9306;SDS011;4691;47.612;7.610;2022-08-19T01:07:15;17.98;;;14.95;;
9306;SDS011;4691;47.612;7.610;2022-08-19T01:09:41;17.13;;;14.05;;
9306;SDS011;4691;47.612;7.610;2022-08-19T01:12:07;15.32;;;13.50;;
9306;SDS011;4691;47.612;7.610;2022-08-19T01:14:33;18.83;;;15.73;;
9306;SDS011;4691;47.612;7.610;2022-08-19T01:17:00;18.40;;;15.02;;
9306;SDS011;4691;47.612;7.610;2022-08-19T01:19:27;19.65;;;15.88;;
9306;SDS011;4691;47.612;7.610;2022-08-19T01:22:01;21.77;;;14.77;;
9306;SDS011;4691;47.612;7.610;2022-08-19T01:24:30;20.45;;;16.70;;
9306;SDS011;4691;47.612;7.610;2022-08-19T01:26:56;19.83;;;16.60;;
9306;SDS011;4691;47.612;7.610;2022-08-19T01:29:22;21.45;;;15.77;;
9306;SDS011;4691;47.612;7.610;2022-08-19T01:31:48;18.73;;;15.95;;
9306;SDS011;4691;47.612;7.610;2022-08-19T01:34:14;21.80;;;17.10;;
9306;SDS011;4691;47.612;7.610;2022-08-19T01:36:40;19.40;;;16.65;;
9306;SDS011;4691;47.612;7.610;2022-08-19T01:39:13;22.23;;;17.45;;
9306;SDS011;4691;47.612;7.610;2022-08-19T01:41:41;18.48;;;15.82;;
9306;SDS011;4691;47.612;7.610;2022-08-19T01:44:07;22.27;;;17.90;;
9306;SDS011;4691;47.612;7.610;2022-08-19T01:46:33;20.73;;;17.65;;
9306;SDS011;4691;47.612;7.610;2022-08-19T01:48:59;24.48;;;17.98;;
9306;SDS011;4691;47.612;7.610;2022-08-19T01:51:24;18.70;;;16.70;;
9306;SDS011;4691;47.612;7.610;2022-08-19T01:53:50;19.60;;;16.83;;
9306;SDS011;4691;47.612;7.610;2022-08-19T01:56:18;19.70;;;15.68;;
9306;SDS011;4691;47.612;7.610;2022-08-19T01:58:46;17.95;;;15.82;;
9306;SDS011;4691;47.612;7.610;2022-08-19T02:01:16;20.92;;;16.90;;
9306;SDS011;4691;47.612;7.610;2022-08-19T02:03:42;18.75;;;16.35;;
9306;SDS011;4691;47.612;7.610;2022-08-19T02:06:08;17.70;;;15.30;;
9306;SDS011;4691;47.612;7.610;2022-08-19T02:08:36;20.02;;;15.73;;
9306;SDS011;4691;47.612;7.610;2022-08-19T02:11:02;19.27;;;16.05;;
9306;SDS011;4691;47.612;7.610;2022-08-19T02:13:29;21.27;;;16.10;;
9306;SDS011;4691;47.612;7.610;2022-08-19T02:15:54;20.77;;;16.67;;
9306;SDS011;4691;47.612;7.610;2022-08-19T02:19:35;18.60;;;16.50;;
9306;SDS011;4691;47.612;7.610;2022-08-19T02:22:00;24.00;;;17.33;;
9306;SDS011;4691;47.612;7.610;2022-08-19T02:24:26;19.50;;;16.83;;
9306;SDS011;4691;47.612;7.610;2022-08-19T02:26:52;23.30;;;17.40;;
9306;SDS011;4691;47.612;7.610;2022-08-19T02:29:18;21.83;;;17.83;;
9306;SDS011;4691;47.612;7.610;2022-08-19T02:31:43;20.77;;;17.58;;
9306;SDS011;4691;47.612;7.610;2022-08-19T02:34:09;21.13;;;16.60;;
9306;SDS011;4691;47.612;7.610;2022-08-19T02:36:34;20.98;;;16.27;;
9306;SDS011;4691;47.612;7.610;2022-08-19T02:39:00;19.83;;;15.95;;
9306;SDS011;4691;47.612;7.610;2022-08-19T02:41:27;21.02;;;15.55;;
9306;SDS011;4691;47.612;7.610;2022-08-19T02:43:56;20.42;;;16.70;;
9306;SDS011;4691;47.612;7.610;2022-08-19T02:46:27;17.65;;;13.63;;
9306;SDS011;4691;47.612;7.610;2022-08-19T02:48:55;20.35;;;15.00;;
9306;SDS011;4691;47.612;7.610;2022-08-19T02:51:25;20.30;;;16.08;;
9306;SDS011;4691;47.612;7.610;2022-08-19T02:53:58;18.08;;;15.10;;
9306;SDS011;4691;47.612;7.610;2022-08-19T02:56:25;18.08;;;15.05;;
9306;SDS011;4691;47.612;7.610;2022-08-19T02:58:52;16.90;;;14.07;;
9306;SDS011;4691;47.612;7.610;2022-08-19T03:01:29;16.02;;;14.13;;
9306;SDS011;4691;47.612;7.610;2022-08-19T03:03:56;15.95;;;14.18;;
9306;SDS011;4691;47.612;7.610;2022-08-19T03:06:24;14.50;;;12.50;;
9306;SDS011;4691;47.612;7.610;2022-08-19T03:08:50;13.95;;;12.13;;
9306;SDS011;4691;47.612;7.610;2022-08-19T03:11:17;12.98;;;11.60;;
9306;SDS011;4691;47.612;7.610;2022-08-19T03:13:47;13.00;;;11.57;;
9306;SDS011;4691;47.612;7.610;2022-08-19T03:16:19;15.63;;;12.23;;
9306;SDS011;4691;47.612;7.610;2022-08-19T03:18:46;13.63;;;11.80;;
9306;SDS011;4691;47.612;7.610;2022-08-19T03:21:21;14.18;;;11.25;;
9306;SDS011;4691;47.612;7.610;2022-08-19T03:23:57;14.80;;;10.82;;
9306;SDS011;4691;47.612;7.610;2022-08-19T03:26:38;13.50;;;10.90;;
9306;SDS011;4691;47.612;7.610;2022-08-19T03:29:05;14.50;;;11.48;;
9306;SDS011;4691;47.612;7.610;2022-08-19T03:31:31;16.00;;;11.80;;
9306;SDS011;4691;47.612;7.610;2022-08-19T03:33:57;13.65;;;11.38;;
9306;SDS011;4691;47.612;7.610;2022-08-19T03:36:23;18.08;;;11.15;;
9306;SDS011;4691;47.612;7.610;2022-08-19T03:38:52;11.95;;;10.52;;
9306;SDS011;4691;47.612;7.610;2022-08-19T03:41:22;13.40;;;10.82;;
9306;SDS011;4691;47.612;7.610;2022-08-19T03:43:52;16.80;;;10.90;;
9306;SDS011;4691;47.612;7.610;2022-08-19T03:46:20;13.80;;;10.98;;
9306;SDS011;4691;47.612;7.610;2022-08-19T03:48:49;12.97;;;10.60;;
9306;SDS011;4691;47.612;7.610;2022-08-19T03:51:19;12.68;;;10.80;;
9306;SDS011;4691;47.612;7.610;2022-08-19T03:53:47;12.65;;;10.75;;
9306;SDS011;4691;47.612;7.610;2022-08-19T03:56:13;13.02;;;10.48;;
9306;SDS011;4691;47.612;7.610;2022-08-19T03:58:40;14.85;;;10.60;;
9306;SDS011;4691;47.612;7.610;2022-08-19T04:01:12;15.13;;;12.02;;
9306;SDS011;4691;47.612;7.610;2022-08-19T04:03:41;13.90;;;11.35;;
9306;SDS011;4691;47.612;7.610;2022-08-19T04:06:16;14.32;;;12.50;;
9306;SDS011;4691;47.612;7.610;2022-08-19T04:08:52;12.55;;;11.02;;
9306;SDS011;4691;47.612;7.610;2022-08-19T04:11:20;14.65;;;10.65;;
9306;SDS011;4691;47.612;7.610;2022-08-19T04:13:50;17.88;;;11.32;;
9306;SDS011;4691;47.612;7.610;2022-08-19T04:16:18;12.73;;;10.82;;
9306;SDS011;4691;47.612;7.610;2022-08-19T04:18:48;12.30;;;10.60;;
9306;SDS011;4691;47.612;7.610;2022-08-19T04:21:18;12.43;;;10.10;;
9306;SDS011;4691;47.612;7.610;2022-08-19T04:23:46;13.90;;;10.13;;
9306;SDS011;4691;47.612;7.610;2022-08-19T04:26:13;12.55;;;10.63;;
9306;SDS011;4691;47.612;7.610;2022-08-19T04:28:40;14.45;;;11.32;;
9306;SDS011;4691;47.612;7.610;2022-08-19T04:31:11;12.25;;;10.60;;
9306;SDS011;4691;47.612;7.610;2022-08-19T04:33:41;15.65;;;10.43;;
9306;SDS011;4691;47.612;7.610;2022-08-19T04:36:07;17.73;;;10.70;;
9306;SDS011;4691;47.612;7.610;2022-08-19T04:38:33;12.18;;;9.75;;
9306;SDS011;4691;47.612;7.610;2022-08-19T04:40:58;11.65;;;9.55;;
9306;SDS011;4691;47.612;7.610;2022-08-19T04:43:42;12.10;;;9.68;;
9306;SDS011;4691;47.612;7.610;2022-08-19T04:46:20;14.70;;;10.23;;
9306;SDS011;4691;47.612;7.610;2022-08-19T04:48:48;13.48;;;10.70;;
9306;SDS011;4691;47.612;7.610;2022-08-19T04:51:18;14.20;;;10.35;;
9306;SDS011;4691;47.612;7.610;2022-08-19T04:53:46;13.02;;;9.73;;
9306;SDS011;4691;47.612;7.610;2022-08-19T04:56:12;15.57;;;10.73;;
9306;SDS011;4691;47.612;7.610;2022-08-19T04:58:40;12.48;;;10.45;;
9306;SDS011;4691;47.612;7.610;2022-08-19T05:01:07;15.15;;;11.05;;
9306;SDS011;4691;47.612;7.610;2022-08-19T05:03:43;13.88;;;11.10;;
9306;SDS011;4691;47.612;7.610;2022-08-19T05:06:09;15.60;;;11.50;;
9306;SDS011;4691;47.612;7.610;2022-08-19T05:08:40;14.88;;;10.98;;
9306;SDS011;4691;47.612;7.610;2022-08-19T05:11:15;14.57;;;11.68;;
9306;SDS011;4691;47.612;7.610;2022-08-19T05:13:45;15.13;;;12.57;;
9306;SDS011;4691;47.612;7.610;2022-08-19T05:16:15;15.15;;;11.40;;
9306;SDS011;4691;47.612;7.610;2022-08-19T05:18:42;13.70;;;11.32;;
9306;SDS011;4691;47.612;7.610;2022-08-19T05:21:26;14.05;;;11.13;;
9306;SDS011;4691;47.612;7.610;2022-08-19T05:24:12;12.50;;;10.55;;
9306;SDS011;4691;47.612;7.610;2022-08-19T05:26:39;12.68;;;10.55;;
9306;SDS011;4691;47.612;7.610;2022-08-19T05:29:07;14.18;;;11.70;;
9306;SDS011;4691;47.612;7.610;2022-08-19T05:31:33;13.82;;;10.38;;
9306;SDS011;4691;47.612;7.610;2022-08-19T05:34:04;13.45;;;10.55;;
9306;SDS011;4691;47.612;7.610;2022-08-19T05:36:34;12.07;;;10.68;;
9306;SDS011;4691;47.612;7.610;2022-08-19T05:39:06;14.50;;;11.60;;
9306;SDS011;4691;47.612;7.610;2022-08-19T05:41:32;13.07;;;11.00;;
9306;SDS011;4691;47.612;7.610;2022-08-19T05:44:00;12.82;;;10.88;;
9306;SDS011;4691;47.612;7.610;2022-08-19T05:46:33;13.07;;;11.15;;
9306;SDS011;4691;47.612;7.610;2022-08-19T05:49:02;18.13;;;11.93;;
9306;SDS011;4691;47.612;7.610;2022-08-19T05:51:29;14.45;;;11.75;;
9306;SDS011;4691;47.612;7.610;2022-08-19T05:53:54;15.63;;;12.23;;
9306;SDS011;4691;47.612;7.610;2022-08-19T05:56:19;13.63;;;11.52;;
9306;SDS011;4691;47.612;7.610;2022-08-19T05:58:50;15.60;;;12.88;;
9306;SDS011;4691;47.612;7.610;2022-08-19T06:01:17;15.13;;;13.32;;
9306;SDS011;4691;47.612;7.610;2022-08-19T06:03:44;14.07;;;12.57;;
9306;SDS011;4691;47.612;7.610;2022-08-19T06:06:10;13.52;;;11.65;;
9306;SDS011;4691;47.612;7.610;2022-08-19T06:08:37;16.27;;;12.90;;
9306;SDS011;4691;47.612;7.610;2022-08-19T06:13:46;16.48;;;13.35;;
9306;SDS011;4691;47.612;7.610;2022-08-19T06:16:18;16.23;;;12.38;;
9306;SDS011;4691;47.612;7.610;2022-08-19T06:18:47;14.80;;;13.00;;
9306;SDS011;4691;47.612;7.610;2022-08-19T06:21:13;15.70;;;12.55;;
9306;SDS011;4691;47.612;7.610;2022-08-19T06:23:39;15.30;;;12.75;;
9306;SDS011;4691;47.612;7.610;2022-08-19T06:26:05;17.00;;;13.25;;
9306;SDS011;4691;47.612;7.610;2022-08-19T06:28:39;16.42;;;12.73;;
9306;SDS011;4691;47.612;7.610;2022-08-19T06:31:08;14.38;;;12.48;;
9306;SDS011;4691;47.612;7.610;2022-08-19T06:33:34;16.20;;;12.73;;
9306;SDS011;4691;47.612;7.610;2022-08-19T06:36:00;13.90;;;12.40;;
9306;SDS011;4691;47.612;7.610;2022-08-19T06:38:26;18.35;;;14.18;;
9306;SDS011;4691;47.612;7.610;2022-08-19T06:41:01;15.57;;;12.65;;
9306;SDS011;4691;47.612;7.610;2022-08-19T06:43:30;16.92;;;12.52;;
9306;SDS011;4691;47.612;7.610;2022-08-19T06:45:55;15.25;;;12.35;;
9306;SDS011;4691;47.612;7.610;2022-08-19T06:48:24;17.23;;;14.20;;
9306;SDS011;4691;47.612;7.610;2022-08-19T06:50:49;17.50;;;14.07;;
9306;SDS011;4691;47.612;7.610;2022-08-19T06:53:19;14.57;;;13.05;;
9306;SDS011;4691;47.612;7.610;2022-08-19T06:55:44;21.30;;;14.85;;
9306;SDS011;4691;47.612;7.610;2022-08-19T06:58:10;19.88;;;14.50;;
9306;SDS011;4691;47.612;7.610;2022-08-19T07:00:39;17.08;;;14.63;;
9306;SDS011;4691;47.612;7.610;2022-08-19T07:03:04;20.13;;;16.13;;
9306;SDS011;4691;47.612;7.610;2022-08-19T07:05:30;17.10;;;14.80;;
9306;SDS011;4691;47.612;7.610;2022-08-19T07:07:55;19.17;;;14.57;;
9306;SDS011;4691;47.612;7.610;2022-08-19T07:10:21;16.10;;;14.15;;
9306;SDS011;4691;47.612;7.610;2022-08-19T07:12:46;22.52;;;15.48;;
9306;SDS011;4691;47.612;7.610;2022-08-19T07:15:13;23.17;;;15.27;;
9306;SDS011;4691;47.612;7.610;2022-08-19T07:17:40;19.10;;;14.95;;
9306;SDS011;4691;47.612;7.610;2022-08-19T07:20:11;18.17;;;13.85;;
9306;SDS011;4691;47.612;7.610;2022-08-19T07:22:37;21.40;;;15.70;;
9306;SDS011;4691;47.612;7.610;2022-08-19T07:25:03;17.73;;;14.15;;
9306;SDS011;4691;47.612;7.610;2022-08-19T07:27:31;16.42;;;14.15;;
9306;SDS011;4691;47.612;7.610;2022-08-19T07:29:56;18.75;;;15.05;;
9306;SDS011;4691;47.612;7.610;2022-08-19T07:32:22;22.45;;;15.50;;
9306;SDS011;4691;47.612;7.610;2022-08-19T07:34:47;18.83;;;14.40;;
9306;SDS011;4691;47.612;7.610;2022-08-19T07:37:13;18.40;;;14.80;;
9306;SDS011;4691;47.612;7.610;2022-08-19T07:39:38;20.63;;;14.10;;
9306;SDS011;4691;47.612;7.610;2022-08-19T07:42:05;19.35;;;15.48;;
9306;SDS011;4691;47.612;7.610;2022-08-19T07:44:33;21.80;;;17.45;;
9306;SDS011;4691;47.612;7.610;2022-08-19T07:46:59;19.90;;;16.83;;
9306;SDS011;4691;47.612;7.610;2022-08-19T07:49:27;17.98;;;15.13;;
9306;SDS011;4691;47.612;7.610;2022-08-19T07:51:57;21.00;;;16.17;;
9306;SDS011;4691;47.612;7.610;2022-08-19T07:54:26;21.58;;;16.98;;
9306;SDS011;4691;47.612;7.610;2022-08-19T07:56:55;21.10;;;16.70;;
9306;SDS011;4691;47.612;7.610;2022-08-19T07:59:21;23.38;;;17.33;;
9306;SDS011;4691;47.612;7.610;2022-08-19T08:01:48;19.08;;;16.98;;
9306;SDS011;4691;47.612;7.610;2022-08-19T08:04:15;21.58;;;17.33;;
9306;SDS011;4691;47.612;7.610;2022-08-19T08:06:59;24.88;;;17.77;;
9306;SDS011;4691;47.612;7.610;2022-08-19T08:09:43;23.50;;;17.45;;
9306;SDS011;4691;47.612;7.610;2022-08-19T08:12:11;21.23;;;16.08;;
9306;SDS011;4691;47.612;7.610;2022-08-19T08:14:51;23.90;;;19.50;;
9306;SDS011;4691;47.612;7.610;2022-08-19T08:17:19;25.92;;;17.95;;
9306;SDS011;4691;47.612;7.610;2022-08-19T08:19:46;28.50;;;20.50;;
9306;SDS011;4691;47.612;7.610;2022-08-19T08:22:15;24.95;;;20.05;;
9306;SDS011;4691;47.612;7.610;2022-08-19T08:25:07;22.98;;;18.90;;
9306;SDS011;4691;47.612;7.610;2022-08-19T08:27:38;24.25;;;19.35;;
9306;SDS011;4691;47.612;7.610;2022-08-19T08:30:06;25.85;;;19.38;;
9306;SDS011;4691;47.612;7.610;2022-08-19T08:32:35;25.03;;;20.47;;
9306;SDS011;4691;47.612;7.610;2022-08-19T08:35:02;28.40;;;22.23;;
9306;SDS011;4691;47.612;7.610;2022-08-19T08:37:28;29.27;;;20.05;;
9306;SDS011;4691;47.612;7.610;2022-08-19T08:39:55;24.90;;;19.92;;
9306;SDS011;4691;47.612;7.610;2022-08-19T08:42:34;28.15;;;21.45;;
9306;SDS011;4691;47.612;7.610;2022-08-19T08:45:17;31.45;;;22.10;;
9306;SDS011;4691;47.612;7.610;2022-08-19T08:47:49;27.55;;;20.55;;
9306;SDS011;4691;47.612;7.610;2022-08-19T08:50:22;26.10;;;20.98;;
9306;SDS011;4691;47.612;7.610;2022-08-19T08:52:53;24.00;;;19.23;;
9306;SDS011;4691;47.612;7.610;2022-08-19T09:00:30;27.27;;;21.10;;
9306;SDS011;4691;47.612;7.610;2022-08-19T09:02:58;28.30;;;21.05;;
9306;SDS011;4691;47.612;7.610;2022-08-19T09:05:37;29.25;;;22.25;;
9306;SDS011;4691;47.612;7.610;2022-08-19T09:08:14;28.77;;;21.73;;
9306;SDS011;4691;47.612;7.610;2022-08-19T09:10:55;27.05;;;22.65;;
9306;SDS011;4691;47.612;7.610;2022-08-19T09:13:28;28.38;;;22.15;;
9306;SDS011;4691;47.612;7.610;2022-08-19T09:16:18;28.33;;;22.27;;
9306;SDS011;4691;47.612;7.610;2022-08-19T09:18:49;23.65;;;19.92;;
9306;SDS011;4691;47.612;7.610;2022-08-19T09:21:18;26.52;;;20.38;;
9306;SDS011;4691;47.612;7.610;2022-08-19T09:23:45;27.65;;;21.17;;
9306;SDS011;4691;47.612;7.610;2022-08-19T09:26:13;30.17;;;20.88;;
9306;SDS011;4691;47.612;7.610;2022-08-19T09:31:10;29.60;;;23.48;;
9306;SDS011;4691;47.612;7.610;2022-08-19T09:33:39;30.83;;;23.48;;
9306;SDS011;4691;47.612;7.610;2022-08-19T09:36:06;31.80;;;24.77;;
9306;SDS011;4691;47.612;7.610;2022-08-19T09:38:34;32.33;;;23.88;;
9306;SDS011;4691;47.612;7.610;2022-08-19T09:41:07;29.85;;;23.60;;
9306;SDS011;4691;47.612;7.610;2022-08-19T09:43:36;31.40;;;23.92;;
9306;SDS011;4691;47.612;7.610;2022-08-19T09:46:02;30.63;;;23.05;;
9306;SDS011;4691;47.612;7.610;2022-08-19T09:48:32;33.33;;;24.77;;
9306;SDS011;4691;47.612;7.610;2022-08-19T09:51:04;36.67;;;26.23;;
9306;SDS011;4691;47.612;7.610;2022-08-19T09:53:32;36.67;;;25.70;;
9306;SDS011;4691;47.612;7.610;2022-08-19T09:55:58;35.13;;;26.05;;
9306;SDS011;4691;47.612;7.610;2022-08-19T09:58:24;35.35;;;26.83;;
9306;SDS011;4691;47.612;7.610;2022-08-19T10:00:53;35.42;;;26.65;;
9306;SDS011;4691;47.612;7.610;2022-08-19T10:03:28;34.67;;;26.55;;
9306;SDS011;4691;47.612;7.610;2022-08-19T10:06:01;35.05;;;25.05;;
9306;SDS011;4691;47.612;7.610;2022-08-19T10:08:37;35.13;;;25.80;;
9306;SDS011;4691;47.612;7.610;2022-08-19T10:11:58;38.03;;;26.20;;
9306;SDS011;4691;47.612;7.610;2022-08-19T10:14:51;38.90;;;25.92;;
9306;SDS011;4691;47.612;7.610;2022-08-19T10:17:34;39.83;;;28.10;;
9306;SDS011;4691;47.612;7.610;2022-08-19T10:23:21;35.50;;;25.23;;
9306;SDS011;4691;47.612;7.610;2022-08-19T10:26:18;35.53;;;27.38;;
9306;SDS011;4691;47.612;7.610;2022-08-19T10:28:51;36.65;;;25.58;;
9306;SDS011;4691;47.612;7.610;2022-08-19T10:38:33;41.05;;;28.73;;
9306;SDS011;4691;47.612;7.610;2022-08-19T10:44:23;41.17;;;28.42;;
9306;SDS011;4691;47.612;7.610;2022-08-19T10:47:07;42.28;;;30.73;;
9306;SDS011;4691;47.612;7.610;2022-08-19T10:50:10;43.95;;;29.85;;
9306;SDS011;4691;47.612;7.610;2022-08-19T10:53:16;38.67;;;29.58;;
9306;SDS011;4691;47.612;7.610;2022-08-19T10:59:10;42.35;;;30.60;;
9306;SDS011;4691;47.612;7.610;2022-08-19T11:05:17;41.42;;;31.20;;
9306;SDS011;4691;47.612;7.610;2022-08-19T11:14:14;41.95;;;31.15;;
9306;SDS011;4691;47.612;7.610;2022-08-19T11:17:31;43.90;;;32.03;;
9306;SDS011;4691;47.612;7.610;2022-08-19T11:23:56;41.70;;;31.33;;
9306;SDS011;4691;47.612;7.610;2022-08-19T11:30:08;45.45;;;32.90;;
9306;SDS011;4691;47.612;7.610;2022-08-19T11:35:57;45.55;;;32.05;;
9306;SDS011;4691;47.612;7.610;2022-08-19T11:39:32;47.47;;;32.17;;
9306;SDS011;4691;47.612;7.610;2022-08-19T11:42:00;46.90;;;32.47;;
9306;SDS011;4691;47.612;7.610;2022-08-19T11:44:52;46.83;;;32.20;;
9306;SDS011;4691;47.612;7.610;2022-08-19T12:36:40;41.88;;;32.75;;
9306;SDS011;4691;47.612;7.610;2022-08-19T12:39:19;48.78;;;34.78;;
9306;SDS011;4691;47.612;7.610;2022-08-19T12:45:12;52.00;;;38.25;;
9306;SDS011;4691;47.612;7.610;2022-08-19T12:47:47;55.85;;;39.20;;
9306;SDS011;4691;47.612;7.610;2022-08-19T12:53:44;59.65;;;41.22;;
9306;SDS011;4691;47.612;7.610;2022-08-19T13:08:39;63.38;;;42.55;;
9306;SDS011;4691;47.612;7.610;2022-08-19T13:21:14;67.85;;;48.13;;
9306;SDS011;4691;47.612;7.610;2022-08-19T13:30:46;55.13;;;41.78;;
9306;SDS011;4691;47.612;7.610;2022-08-19T13:33:49;58.35;;;43.03;;
9306;SDS011;4691;47.612;7.610;2022-08-19T13:36:17;62.97;;;43.60;;
9306;SDS011;4691;47.612;7.610;2022-08-19T13:38:50;74.22;;;49.85;;
9306;SDS011;4691;47.612;7.610;2022-08-19T13:41:43;55.17;;;41.22;;
9306;SDS011;4691;47.612;7.610;2022-08-19T13:44:22;71.85;;;46.92;;
9306;SDS011;4691;47.612;7.610;2022-08-19T13:46:51;73.53;;;49.58;;
9306;SDS011;4691;47.612;7.610;2022-08-19T13:49:24;74.68;;;49.50;;
9306;SDS011;4691;47.612;7.610;2022-08-19T13:51:55;71.78;;;46.72;;
9306;SDS011;4691;47.612;7.610;2022-08-19T13:57:21;71.00;;;47.15;;
9306;SDS011;4691;47.612;7.610;2022-08-19T13:59:47;75.60;;;50.03;;
9306;SDS011;4691;47.612;7.610;2022-08-19T14:02:15;75.05;;;48.70;;
9306;SDS011;4691;47.612;7.610;2022-08-19T14:04:51;65.85;;;45.53;;
9306;SDS011;4691;47.612;7.610;2022-08-19T14:07:38;62.58;;;44.63;;
9306;SDS011;4691;47.612;7.610;2022-08-19T14:16:32;53.35;;;39.92;;
9306;SDS011;4691;47.612;7.610;2022-08-19T14:19:08;52.42;;;39.80;;
9306;SDS011;4691;47.612;7.610;2022-08-19T14:21:33;46.45;;;36.08;;
9306;SDS011;4691;47.612;7.610;2022-08-19T14:24:03;46.03;;;35.92;;
9306;SDS011;4691;47.612;7.610;2022-08-19T14:29:33;45.13;;;34.67;;
9306;SDS011;4691;47.612;7.610;2022-08-19T14:32:14;45.92;;;35.47;;
9306;SDS011;4691;47.612;7.610;2022-08-19T14:34:48;49.00;;;38.40;;
9306;SDS011;4691;47.612;7.610;2022-08-19T14:43:56;52.33;;;37.88;;
9306;SDS011;4691;47.612;7.610;2022-08-19T14:49:45;56.70;;;37.67;;
9306;SDS011;4691;47.612;7.610;2022-08-19T14:52:10;56.42;;;41.38;;
9306;SDS011;4691;47.612;7.610;2022-08-19T14:54:48;50.75;;;37.00;;
9306;SDS011;4691;47.612;7.610;2022-08-19T14:57:14;45.88;;;35.47;;
9306;SDS011;4691;47.612;7.610;2022-08-19T14:59:41;50.13;;;37.42;;
9306;SDS011;4691;47.612;7.610;2022-08-19T15:02:08;49.85;;;37.10;;
9306;SDS011;4691;47.612;7.610;2022-08-19T15:48:27;36.72;;;28.38;;
9306;SDS011;4691;47.612;7.610;2022-08-19T15:55:04;31.50;;;26.92;;
9306;SDS011;4691;47.612;7.610;2022-08-19T16:04:44;47.08;;;32.78;;
9306;SDS011;4691;47.612;7.610;2022-08-19T16:07:28;37.70;;;30.27;;
9306;SDS011;4691;47.612;7.610;2022-08-19T16:16:59;42.20;;;32.05;;
9306;SDS011;4691;47.612;7.610;2022-08-19T16:19:34;35.85;;;29.23;;
9306;SDS011;4691;47.612;7.610;2022-08-19T16:22:18;39.88;;;31.88;;
9306;SDS011;4691;47.612;7.610;2022-08-19T16:48:13;37.78;;;30.27;;
9306;SDS011;4691;47.612;7.610;2022-08-19T20:37:15;50.10;;;36.55;;
9306;SDS011;4691;47.612;7.610;2022-08-19T20:54:50;53.67;;;37.42;;
9306;SDS011;4691;47.612;7.610;2022-08-19T20:57:45;52.15;;;38.10;;
9306;SDS011;4691;47.612;7.610;2022-08-19T21:33:00;46.30;;;33.13;;
9306;SDS011;4691;47.612;7.610;2022-08-19T21:35:48;45.83;;;32.22;;
9306;SDS011;4691;47.612;7.610;2022-08-19T21:38:41;42.47;;;30.40;;
9306;SDS011;4691;47.612;7.610;2022-08-19T21:41:29;37.95;;;28.25;;
9306;SDS011;4691;47.612;7.610;2022-08-19T21:44:04;31.45;;;26.00;;
9306;SDS011;4691;47.612;7.610;2022-08-19T21:46:29;36.30;;;26.40;;
9306;SDS011;4691;47.612;7.610;2022-08-19T21:49:13;38.03;;;27.23;;
9306;SDS011;4691;47.612;7.610;2022-08-19T21:52:02;35.42;;;26.48;;
9306;SDS011;4691;47.612;7.610;2022-08-19T21:54:37;35.17;;;26.05;;
9306;SDS011;4691;47.612;7.610;2022-08-19T21:57:13;37.53;;;26.65;;
9306;SDS011;4691;47.612;7.610;2022-08-19T21:59:56;34.50;;;26.20;;
9306;SDS011;4691;47.612;7.610;2022-08-19T22:02:25;35.15;;;25.67;;
9306;SDS011;4691;47.612;7.610;2022-08-19T22:04:59;38.13;;;26.63;;
9306;SDS011;4691;47.612;7.610;2022-08-19T22:07:27;32.90;;;24.60;;
9306;SDS011;4691;47.612;7.610;2022-08-19T22:09:58;27.52;;;22.63;;
9306;SDS011;4691;47.612;7.610;2022-08-19T22:12:59;33.70;;;25.55;;
9306;SDS011;4691;47.612;7.610;2022-08-19T22:15:46;37.13;;;24.85;;
9306;SDS011;4691;47.612;7.610;2022-08-19T22:18:21;34.28;;;23.15;;
9306;SDS011;4691;47.612;7.610;2022-08-19T22:20:50;28.25;;;21.77;;
9306;SDS011;4691;47.612;7.610;2022-08-19T22:23:16;30.40;;;23.35;;
9306;SDS011;4691;47.612;7.610;2022-08-19T22:25:45;29.05;;;22.42;;
9306;SDS011;4691;47.612;7.610;2022-08-19T22:28:29;32.67;;;22.52;;
9306;SDS011;4691;47.612;7.610;2022-08-19T22:30:54;25.67;;;20.38;;
9306;SDS011;4691;47.612;7.610;2022-08-19T22:33:20;31.63;;;20.38;;
9306;SDS011;4691;47.612;7.610;2022-08-19T22:35:46;27.95;;;21.17;;
9306;SDS011;4691;47.612;7.610;2022-08-19T22:38:27;26.08;;;20.35;;
9306;SDS011;4691;47.612;7.610;2022-08-19T22:40:53;26.83;;;20.38;;
9306;SDS011;4691;47.612;7.610;2022-08-19T22:43:24;26.13;;;20.25;;
9306;SDS011;4691;47.612;7.610;2022-08-19T22:45:59;29.35;;;22.20;;
9306;SDS011;4691;47.612;7.610;2022-08-19T22:48:30;28.23;;;21.60;;
9306;SDS011;4691;47.612;7.610;2022-08-19T22:51:05;24.63;;;21.10;;
9306;SDS011;4691;47.612;7.610;2022-08-19T22:53:50;28.65;;;21.00;;
9306;SDS011;4691;47.612;7.610;2022-08-19T22:56:22;36.70;;;24.92;;
9306;SDS011;4691;47.612;7.610;2022-08-19T22:58:58;41.88;;;29.70;;
9306;SDS011;4691;47.612;7.610;2022-08-19T23:01:32;37.47;;;27.08;;
9306;SDS011;4691;47.612;7.610;2022-08-19T23:04:04;38.92;;;26.85;;
9306;SDS011;4691;47.612;7.610;2022-08-19T23:06:53;34.97;;;26.20;;
9306;SDS011;4691;47.612;7.610;2022-08-19T23:09:22;37.58;;;25.55;;
9306;SDS011;4691;47.612;7.610;2022-08-19T23:11:52;36.75;;;25.45;;
9306;SDS011;4691;47.612;7.610;2022-08-19T23:14:27;34.28;;;26.85;;
9306;SDS011;4691;47.612;7.610;2022-08-19T23:16:55;38.65;;;27.98;;
9306;SDS011;4691;47.612;7.610;2022-08-19T23:19:30;35.42;;;27.63;;
9306;SDS011;4691;47.612;7.610;2022-08-19T23:22:05;41.20;;;28.73;;
9306;SDS011;4691;47.612;7.610;2022-08-19T23:24:32;43.50;;;31.80;;
9306;SDS011;4691;47.612;7.610;2022-08-19T23:27:00;44.65;;;33.40;;
9306;SDS011;4691;47.612;7.610;2022-08-19T23:29:47;45.70;;;34.05;;
9306;SDS011;4691;47.612;7.610;2022-08-19T23:32:40;43.00;;;32.10;;
9306;SDS011;4691;47.612;7.610;2022-08-19T23:35:05;44.40;;;33.05;;
9306;SDS011;4691;47.612;7.610;2022-08-19T23:37:40;44.70;;;32.63;;
9306;SDS011;4691;47.612;7.610;2022-08-19T23:40:12;45.53;;;32.97;;
9306;SDS011;4691;47.612;7.610;2022-08-19T23:42:49;44.10;;;32.85;;
9306;SDS011;4691;47.612;7.610;2022-08-19T23:45:27;44.15;;;31.70;;
9306;SDS011;4691;47.612;7.610;2022-08-19T23:47:59;45.55;;;31.92;;
9306;SDS011;4691;47.612;7.610;2022-08-19T23:50:30;44.15;;;33.38;;
9306;SDS011;4691;47.612;7.610;2022-08-19T23:53:02;43.90;;;32.30;;